Time;durP1;ratioP1;P1;durP2;ratioP2;P2;SDS_P1;SDS_P2;PMS_P1;PMS_P2;Temp;Humidity;BMP_temperature;BMP_pressure;BME280_temperature;BME280_humidity;BME280_pressure;Samples;Min_cycle;Max_cycle;Signal;HPM_P1;HPM_P2
2023/10/01 00:01:19;;;;;;;11.75;7.47;;;13.00;99.90;;;;;;5052025;28;20249;-51
2023/10/01 00:03:45;;;;;;;12.75;8.25;;;13.00;99.90;;;;;;5051803;28;20253;-51
2023/10/01 00:06:11;;;;;;;11.90;7.82;;;13.00;99.90;;;;;;5051606;28;20170;-51
2023/10/01 00:08:36;;;;;;;11.57;7.25;;;13.00;99.90;;;;;;5033718;28;20183;-51
2023/10/01 00:11:03;;;;;;;10.60;7.93;;;13.00;99.90;;;;;;5033590;28;20203;-49
2023/10/01 00:13:29;;;;;;;12.88;8.57;;;;;;;;;;5052184;28;20171;-49
2023/10/01 00:15:55;;;;;;;14.98;7.00;;;12.90;99.90;;;;;;5034021;28;20175;-51
2023/10/01 00:18:21;;;;;;;11.48;6.78;;;12.90;99.90;;;;;;5051550;28;20213;-51
2023/10/01 00:20:47;;;;;;;10.85;6.90;;;13.00;99.90;;;;;;5051491;28;20166;-50
2023/10/01 00:23:12;;;;;;;12.80;7.15;;;13.00;99.90;;;;;;5051463;28;20629;-51
2023/10/01 00:25:41;;;;;;;10.30;7.15;;;13.00;99.90;;;;;;5051669;28;20570;-51
2023/10/01 00:28:09;;;;;;;10.73;7.28;;;12.90;99.90;;;;;;5051527;28;20667;-51
2023/10/01 00:30:36;;;;;;;11.60;6.38;;;12.90;99.90;;;;;;5051528;28;20291;-51
2023/10/01 00:33:11;;;;;;;8.95;5.57;;;12.80;99.90;;;;;;5033921;28;20170;-51
2023/10/01 00:35:41;;;;;;;10.90;6.28;;;12.80;99.90;;;;;;5051593;28;20177;-51
2023/10/01 00:38:10;;;;;;;13.20;6.00;;;12.70;99.90;;;;;;5034413;28;20177;-51
2023/10/01 00:40:36;;;;;;;16.00;6.72;;;12.60;99.90;;;;;;5051254;28;20641;-51
2023/10/01 00:43:06;;;;;;;15.65;7.68;;;;;;;;;;5051239;28;20171;-51
2023/10/01 00:45:32;;;;;;;20.20;8.43;;;;;;;;;;5051296;28;20220;-51
2023/10/01 00:48:06;;;;;;;11.75;7.57;;;12.60;99.90;;;;;;5033822;28;20170;-49
2023/10/01 00:50:34;;;;;;;16.15;6.60;;;12.60;99.90;;;;;;5033388;28;20233;-51
2023/10/01 00:53:00;;;;;;;14.88;6.75;;;12.60;99.90;;;;;;5051438;28;20540;-51
2023/10/01 00:55:26;;;;;;;11.98;6.70;;;12.70;99.90;;;;;;5033890;28;20197;-52
2023/10/01 00:57:56;;;;;;;10.48;5.82;;;12.70;99.90;;;;;;5051425;28;20225;-52
2023/10/01 01:00:23;;;;;;;9.30;5.85;;;12.60;99.90;;;;;;5033216;28;20162;-51
2023/10/01 01:02:57;;;;;;;10.38;5.45;;;;;;;;;;5051079;28;20660;-51
2023/10/01 01:05:36;;;;;;;9.68;5.43;;;12.70;99.90;;;;;;5051305;28;20174;-51
2023/10/01 01:08:07;;;;;;;9.73;5.28;;;12.70;99.90;;;;;;5035300;28;20170;-51
2023/10/01 01:10:39;;;;;;;8.15;4.95;;;12.60;99.90;;;;;;5050941;28;20605;-51
2023/10/01 01:13:06;;;;;;;8.82;5.05;;;12.60;99.90;;;;;;5051212;28;20198;-51
2023/10/01 01:15:34;;;;;;;10.93;4.68;;;12.50;99.90;;;;;;5051241;28;20220;-51
2023/10/01 01:18:01;;;;;;;9.70;4.63;;;12.50;99.90;;;;;;5051181;28;20206;-51
2023/10/01 01:20:36;;;;;;;7.95;4.60;;;12.50;99.90;;;;;;5051414;28;20630;-52
2023/10/01 01:23:05;;;;;;;7.55;4.65;;;12.40;99.90;;;;;;5051205;28;20198;-54
2023/10/01 01:25:32;;;;;;;7.85;4.97;;;12.50;99.90;;;;;;5033007;28;20194;-50
2023/10/01 01:27:58;;;;;;;6.90;5.05;;;12.60;99.90;;;;;;5053494;28;20174;-51
2023/10/01 01:30:29;;;;;;;11.77;5.00;;;12.60;99.90;;;;;;5055242;28;20211;-51
2023/10/01 01:32:55;;;;;;;9.25;5.15;;;12.60;99.90;;;;;;5054982;28;20166;-51
2023/10/01 01:35:29;;;;;;;7.93;4.38;;;12.60;99.90;;;;;;5054551;28;20189;-51
2023/10/01 01:37:58;;;;;;;7.35;4.28;;;12.50;99.90;;;;;;5036980;28;20560;-51
2023/10/01 01:40:26;;;;;;;6.38;4.60;;;12.60;99.90;;;;;;5055195;28;20185;-50
2023/10/01 01:42:56;;;;;;;8.57;3.75;;;12.50;99.90;;;;;;5054479;28;20189;-50
2023/10/01 01:45:25;;;;;;;6.68;4.60;;;12.60;99.90;;;;;;5054387;28;20218;-51
2023/10/01 01:47:52;;;;;;;7.47;4.32;;;12.60;99.90;;;;;;5054382;28;20728;-51
2023/10/01 01:50:18;;;;;;;10.00;4.45;;;12.50;99.90;;;;;;5054416;28;20205;-51
2023/10/01 01:52:50;;;;;;;6.28;4.60;;;12.50;99.90;;;;;;5054258;28;20269;-51
2023/10/01 01:55:23;;;;;;;8.07;4.90;;;12.50;99.90;;;;;;5054187;28;20190;-51
2023/10/01 02:00:35;;;;;;;13.98;6.63;;;12.50;99.90;;;;;;5054338;28;20229;-50
2023/10/01 02:03:10;;;;;;;13.13;5.70;;;12.60;99.90;;;;;;5053865;28;20171;-51
2023/10/01 02:05:45;;;;;;;10.45;4.82;;;12.60;99.90;;;;;;5053951;28;20169;-50
2023/10/01 02:08:23;;;;;;;8.18;5.53;;;12.60;99.90;;;;;;5054277;28;20177;-51
2023/10/01 02:10:54;;;;;;;8.98;4.97;;;12.60;99.90;;;;;;5054028;28;20206;-51
2023/10/01 02:13:21;;;;;;;7.38;4.70;;;12.60;99.90;;;;;;5053866;28;20167;-51
2023/10/01 02:15:47;;;;;;;6.93;4.80;;;12.60;99.90;;;;;;5053934;28;20162;-51
2023/10/01 02:18:17;;;;;;;7.75;4.57;;;12.60;99.90;;;;;;5053796;28;20501;-51
2023/10/01 02:20:51;;;;;;;9.70;4.72;;;12.60;99.90;;;;;;5053944;28;20171;-51
2023/10/01 02:23:25;;;;;;;9.43;4.75;;;12.50;99.90;;;;;;5053599;28;20228;-51
2023/10/01 02:25:52;;;;;;;6.80;4.82;;;;;;;;;;5053825;28;20174;-51
2023/10/01 02:28:18;;;;;;;8.27;5.10;;;12.50;99.90;;;;;;5053803;28;20174;-50
2023/10/01 02:30:47;;;;;;;16.27;5.75;;;12.50;99.90;;;;;;5053328;28;20205;-51
2023/10/01 02:33:16;;;;;;;8.15;5.10;;;12.50;99.90;;;;;;5066972;28;20174;-51
2023/10/01 02:35:42;;;;;;;9.45;5.00;;;12.50;99.90;;;;;;5073621;28;20181;-51
2023/10/01 02:38:36;;;;;;;8.10;4.55;;;12.40;99.90;;;;;;5073114;28;20233;-51
2023/10/01 02:41:01;;;;;;;7.55;4.82;;;12.40;99.90;;;;;;5073321;28;20180;-51
2023/10/01 02:43:34;;;;;;;10.55;5.47;;;12.40;99.90;;;;;;5073605;28;20158;-51
2023/10/01 02:46:12;;;;;;;9.20;5.40;;;12.40;99.90;;;;;;5073087;28;20707;-50
2023/10/01 02:48:41;;;;;;;9.68;5.53;;;12.40;99.90;;;;;;5073417;28;20191;-51
2023/10/01 02:51:16;;;;;;;8.57;5.10;;;12.40;99.90;;;;;;5072976;28;20301;-51
2023/10/01 02:54:01;;;;;;;11.80;5.40;;;12.30;99.90;;;;;;5073311;28;20177;-51
2023/10/01 02:56:33;;;;;;;11.35;5.78;;;12.30;99.90;;;;;;5073642;28;20181;-51
2023/10/01 02:59:09;;;;;;;8.73;4.88;;;12.30;99.90;;;;;;5072921;28;20166;-51
2023/10/01 03:01:38;;;;;;;8.75;4.63;;;12.30;99.90;;;;;;5073099;28;20197;-51
2023/10/01 03:04:10;;;;;;;11.48;4.93;;;12.30;99.90;;;;;;5072983;28;20539;-51
2023/10/01 03:06:42;;;;;;;7.32;4.75;;;12.40;99.90;;;;;;5072805;28;20711;-51
2023/10/01 03:09:22;;;;;;;8.70;5.13;;;12.40;99.90;;;;;;5073019;28;20543;-51
2023/10/01 03:11:53;;;;;;;9.00;4.70;;;12.40;99.90;;;;;;5072526;28;20736;-50
2023/10/01 03:14:26;;;;;;;12.90;5.47;;;12.40;99.90;;;;;;5072652;28;20170;-51
2023/10/01 03:16:56;;;;;;;9.10;5.63;;;12.40;99.90;;;;;;5072549;28;20170;-51
2023/10/01 03:19:25;;;;;;;8.07;4.90;;;12.40;99.90;;;;;;5072767;28;20253;-51
2023/10/01 03:24:30;;;;;;;8.27;5.13;;;12.40;99.90;;;;;;5072402;28;20189;-51
2023/10/01 03:26:59;;;;;;;10.80;4.78;;;12.40;99.90;;;;;;5072753;28;20652;-51
2023/10/01 03:29:34;;;;;;;8.70;5.00;;;12.40;99.90;;;;;;5072688;28;20176;-49
2023/10/01 03:32:26;;;;;;;7.55;4.53;;;12.30;99.90;;;;;;5072141;28;20676;-49
2023/10/01 03:34:46;;;;;;;4.93;3.78;;;12.30;99.90;;;;;;5072124;28;20545;-50
2023/10/01 03:37:19;;;;;;;7.90;4.10;;;12.40;99.90;;;;;;5072471;28;20178;-51
2023/10/01 03:39:50;;;;;;;9.45;5.20;;;12.30;99.90;;;;;;5072396;28;20178;-51
2023/10/01 03:42:17;;;;;;;6.38;4.68;;;12.30;99.90;;;;;;5072105;28;20170;-50
2023/10/01 03:47:26;;;;;;;5.85;4.07;;;12.40;99.90;;;;;;5072715;28;20737;-50
2023/10/01 03:49:55;;;;;;;7.88;4.35;;;12.40;99.90;;;;;;5071630;28;20170;-51
2023/10/01 03:52:21;;;;;;;8.55;4.70;;;12.30;99.90;;;;;;5072033;28;20180;-51
2023/10/01 03:55:25;;;;;;;6.60;4.60;;;12.30;99.90;;;;;;5072149;28;20245;-49
2023/10/01 03:58:07;;;;;;;8.63;4.15;;;12.30;99.90;;;;;;5071652;28;20227;-50
2023/10/01 04:00:41;;;;;;;7.50;4.32;;;12.30;99.90;;;;;;5072030;28;20165;-50
2023/10/01 04:03:16;;;;;;;8.13;4.65;;;12.30;99.90;;;;;;5071767;28;20238;-51
2023/10/01 04:05:46;;;;;;;8.15;4.63;;;12.30;99.90;;;;;;5071939;28;20169;-50
2023/10/01 04:08:16;;;;;;;8.65;4.35;;;12.30;99.90;;;;;;5071668;28;20625;-49
2023/10/01 04:10:43;;;;;;;6.82;4.40;;;12.30;99.90;;;;;;5071704;28;20209;-51
2023/10/01 04:13:20;;;;;;;6.80;4.10;;;12.30;99.90;;;;;;5053711;28;20213;-50
2023/10/01 04:15:49;;;;;;;7.68;5.13;;;12.30;99.90;;;;;;5071638;28;20652;-49
2023/10/01 04:20:49;;;;;;;7.07;4.07;;;12.30;99.90;;;;;;5071888;28;20181;-49
2023/10/01 04:23:29;;;;;;;6.72;4.13;;;12.30;99.90;;;;;;5071539;28;20249;-51
2023/10/01 04:26:04;;;;;;;9.60;4.95;;;12.30;99.90;;;;;;5072032;28;20162;-51
2023/10/01 04:28:31;;;;;;;7.88;4.38;;;12.30;99.90;;;;;;5071650;28;20177;-51
2023/10/01 04:30:57;;;;;;;6.28;4.10;;;12.30;99.90;;;;;;5071896;28;20204;-51
2023/10/01 04:33:25;;;;;;;7.03;4.63;;;12.30;99.90;;;;;;5071848;28;20166;-51
2023/10/01 04:35:51;;;;;;;4.57;3.45;;;12.30;99.90;;;;;;5071654;28;20170;-51
2023/10/01 04:38:21;;;;;;;62.50;27.02;;;12.20;99.90;;;;;;5071440;28;20166;-50
2023/10/01 04:40:51;;;;;;;54.78;26.40;;;12.20;99.90;;;;;;5071555;28;20216;-51
2023/10/01 04:43:19;;;;;;;67.80;28.58;;;12.20;99.90;;;;;;5071405;28;20749;-50
2023/10/01 04:45:45;;;;;;;52.42;22.77;;;12.20;99.90;;;;;;5071223;28;20298;-51
2023/10/01 04:48:24;;;;;;;18.85;7.55;;;12.20;99.90;;;;;;5071488;28;20726;-51
2023/10/01 04:50:54;;;;;;;13.98;5.30;;;12.20;99.90;;;;;;5053199;28;20308;-50
2023/10/01 04:53:21;;;;;;;18.33;8.85;;;12.20;99.90;;;;;;5071429;28;20169;-51
2023/10/01 04:56:00;;;;;;;8.88;4.90;;;12.20;99.90;;;;;;5071576;28;21178;-49
2023/10/01 04:58:27;;;;;;;7.93;4.70;;;12.20;99.90;;;;;;5071665;28;20287;-51
2023/10/01 05:00:55;;;;;;;8.88;5.10;;;12.20;99.90;;;;;;5071581;28;20198;-52
2023/10/01 05:03:36;;;;;;;10.27;5.22;;;12.20;99.90;;;;;;5074079;28;20166;-51
2023/10/01 05:06:02;;;;;;;11.27;6.38;;;;;;;;;;5075399;28;20174;-50
2023/10/01 05:08:38;;;;;;;8.75;5.00;;;12.20;99.90;;;;;;5075249;28;20189;-50
2023/10/01 05:11:10;;;;;;;10.68;5.53;;;12.10;99.90;;;;;;5075187;28;20296;-51
2023/10/01 05:13:40;;;;;;;9.63;4.97;;;12.10;99.90;;;;;;5075142;28;20198;-51
2023/10/01 05:16:14;;;;;;;9.25;5.10;;;12.10;99.90;;;;;;5074994;28;20257;-51
2023/10/01 05:18:43;;;;;;;7.20;4.35;;;12.10;99.90;;;;;;5075027;28;20170;-49
2023/10/01 05:21:21;;;;;;;7.90;4.55;;;12.10;99.90;;;;;;5074750;28;20525;-51
2023/10/01 05:23:47;;;;;;;6.35;4.47;;;12.10;99.90;;;;;;5074663;28;20173;-49
2023/10/01 05:26:20;;;;;;;8.23;4.68;;;12.10;99.90;;;;;;5074734;28;20158;-52
2023/10/01 05:28:48;;;;;;;7.85;4.35;;;12.00;99.90;;;;;;5074726;28;20162;-49
2023/10/01 05:31:14;;;;;;;7.47;3.78;;;12.00;99.90;;;;;;5074734;28;20239;-49
2023/10/01 05:33:46;;;;;;;7.18;3.90;;;12.00;99.90;;;;;;5074877;28;20170;-49
2023/10/01 05:36:16;;;;;;;6.60;4.60;;;12.00;99.90;;;;;;5074583;28;20189;-50
2023/10/01 05:38:44;;;;;;;6.47;4.50;;;12.00;99.90;;;;;;5074801;28;20299;-50
2023/10/01 05:41:13;;;;;;;6.57;4.55;;;11.90;99.90;;;;;;5074752;28;20181;-50
2023/10/01 05:43:47;;;;;;;8.20;3.92;;;12.00;99.90;;;;;;5074712;28;20224;-51
2023/10/01 05:46:14;;;;;;;7.93;3.90;;;12.00;99.90;;;;;;5073868;28;20229;-50
2023/10/01 05:48:40;;;;;;;7.72;4.18;;;12.00;99.90;;;;;;5074586;28;20228;-51
2023/10/01 05:51:18;;;;;;;12.45;6.43;;;12.00;99.90;;;;;;5074259;28;20602;-50
2023/10/01 05:53:48;;;;;;;7.75;4.95;;;12.10;99.90;;;;;;5074465;28;20176;-50
2023/10/01 05:56:20;;;;;;;9.85;4.95;;;12.00;99.90;;;;;;5056249;28;20166;-50
2023/10/01 05:58:45;;;;;;;7.80;4.35;;;12.10;99.90;;;;;;5074072;28;20162;-50
2023/10/01 06:01:15;;;;;;;8.00;4.55;;;12.10;99.90;;;;;;5074068;28;20253;-49
2023/10/01 06:03:41;;;;;;;8.32;4.32;;;12.10;99.90;;;;;;5074352;28;20162;-51
2023/10/01 06:06:13;;;;;;;7.50;5.10;;;12.10;99.90;;;;;;5074014;28;20173;-49
2023/10/01 06:08:49;;;;;;;8.90;5.30;;;12.10;99.90;;;;;;5073876;28;20193;-49
2023/10/01 06:11:15;;;;;;;19.40;9.95;;;12.10;99.90;;;;;;5074055;28;20560;-50
2023/10/01 06:13:50;;;;;;;14.77;8.00;;;12.20;99.90;;;;;;5073205;28;20174;-51
2023/10/01 06:16:23;;;;;;;11.93;6.30;;;12.20;99.90;;;;;;5074098;28;20180;-49
2023/10/01 06:18:56;;;;;;;10.63;6.00;;;12.20;99.90;;;;;;5073676;28;20174;-50
2023/10/01 06:21:26;;;;;;;9.80;5.40;;;12.20;99.90;;;;;;5074064;28;20162;-50
2023/10/01 06:23:53;;;;;;;8.48;5.20;;;12.30;99.90;;;;;;5073570;28;20211;-50
2023/10/01 06:26:37;;;;;;;9.27;5.63;;;12.30;99.90;;;;;;5073898;28;20170;-50
2023/10/01 06:29:07;;;;;;;9.30;5.78;;;12.30;99.90;;;;;;5073558;28;20162;-49
2023/10/01 06:34:21;;;;;;;6.30;4.95;;;12.40;99.90;;;;;;5073808;28;20185;-50
2023/10/01 06:36:51;;;;;;;8.80;5.00;;;12.50;99.90;;;;;;5073381;28;20177;-49
2023/10/01 06:39:20;;;;;;;11.52;5.25;;;12.50;99.90;;;;;;5073757;28;20706;-49
2023/10/01 06:41:50;;;;;;;11.07;5.70;;;12.60;99.90;;;;;;5073640;28;20264;-50
2023/10/01 06:44:16;;;;;;;9.43;5.78;;;12.70;99.90;;;;;;5073231;28;20170;-49
2023/10/01 06:46:42;;;;;;;9.23;5.50;;;12.80;99.90;;;;;;5073191;28;20270;-49
2023/10/01 06:49:11;;;;;;;13.20;6.30;;;12.90;99.90;;;;;;5073420;28;20208;-49
2023/10/01 06:51:43;;;;;;;11.18;6.70;;;12.90;99.90;;;;;;5072702;28;20225;-50
2023/10/01 06:54:10;;;;;;;10.88;5.78;;;13.00;99.90;;;;;;5072913;28;20158;-50
2023/10/01 06:56:38;;;;;;;31.00;12.18;;;13.10;99.90;;;;;;5072973;28;20170;-49
2023/10/01 07:01:34;;;;;;;32.45;11.63;;;13.40;99.90;;;;;;5072701;28;20162;-51
2023/10/01 07:04:02;;;;;;;27.65;10.52;;;13.60;99.90;;;;;;5072802;28;20158;-51
2023/10/01 07:06:28;;;;;;;30.75;11.55;;;13.80;99.90;;;;;;5072688;28;20182;-50
2023/10/01 07:08:54;;;;;;;26.83;10.60;;;13.90;99.90;;;;;;5073202;28;20172;-49
2023/10/01 07:11:21;;;;;;;21.75;9.52;;;13.90;99.90;;;;;;5072669;28;20208;-51
2023/10/01 07:13:48;;;;;;;33.92;12.73;;;14.20;99.90;;;;;;5072892;28;20212;-51
2023/10/01 07:16:35;;;;;;;34.88;12.88;;;14.30;99.90;;;;;;5072896;28;20206;-53
2023/10/01 07:19:04;;;;;;;49.65;15.73;;;14.50;99.90;;;;;;5054362;28;20637;-49
2023/10/01 07:21:35;;;;;;;51.30;17.80;;;14.70;99.90;;;;;;5055482;28;20182;-50
2023/10/01 07:24:02;;;;;;;13.52;8.25;;;14.80;99.90;;;;;;5072506;28;20163;-51
2023/10/01 07:26:28;;;;;;;21.02;9.70;;;15.00;99.90;;;;;;5071903;28;20170;-48
2023/10/01 07:28:59;;;;;;;14.45;8.23;;;15.10;99.90;;;;;;5067279;28;20170;-51
2023/10/01 07:31:25;;;;;;;21.63;10.20;;;15.20;99.90;;;;;;5062044;28;20233;-51
2023/10/01 07:34:01;;;;;;;23.55;10.50;;;15.30;99.90;;;;;;5064251;28;20664;-49
2023/10/01 07:36:27;;;;;;;12.43;7.13;;;;;;;;;;5054226;28;20220;-49
2023/10/01 07:38:56;;;;;;;13.55;7.07;;;15.50;99.90;;;;;;5070840;28;20182;-51
2023/10/01 07:41:27;;;;;;;13.40;6.35;;;15.60;99.90;;;;;;5072857;28;20197;-50
2023/10/01 07:43:55;;;;;;;12.23;6.50;;;15.70;99.90;;;;;;5072693;28;20188;-50
2023/10/01 07:46:20;;;;;;;18.98;9.50;;;15.90;99.90;;;;;;5071997;28;20217;-51
2023/10/01 07:48:51;;;;;;;13.48;7.10;;;15.90;99.90;;;;;;5071940;28;20207;-50
2023/10/01 07:51:23;;;;;;;18.77;9.60;;;16.00;99.90;;;;;;5072146;28;20292;-49
2023/10/01 07:53:53;;;;;;;12.18;7.50;;;16.20;99.90;;;;;;5054018;28;20220;-50
2023/10/01 07:56:21;;;;;;;14.32;7.20;;;16.30;99.90;;;;;;5071894;28;20537;-50
2023/10/01 08:01:42;;;;;;;20.30;8.38;;;16.50;99.90;;;;;;5071802;28;20664;-51
2023/10/01 08:07:05;;;;;;;11.52;7.13;;;16.70;99.90;;;;;;5072029;28;20173;-49
2023/10/01 08:09:32;;;;;;;14.52;7.18;;;16.70;99.90;;;;;;5071014;28;20169;-50
2023/10/01 08:11:58;;;;;;;11.75;7.13;;;16.80;99.90;;;;;;5071337;28;20213;-49
2023/10/01 08:14:27;;;;;;;13.88;7.00;;;17.00;99.90;;;;;;5072153;28;20170;-49
2023/10/01 08:16:57;;;;;;;11.82;6.20;;;;;;;;;;5071983;28;20170;-50
2023/10/01 08:19:23;;;;;;;16.20;7.35;;;17.30;99.90;;;;;;5071702;28;20177;-49
2023/10/01 08:21:52;;;;;;;10.77;5.80;;;17.30;99.90;;;;;;5071660;28;20174;-51
2023/10/01 08:24:18;;;;;;;12.93;7.38;;;17.50;99.90;;;;;;5071809;28;20170;-51
2023/10/01 08:26:57;;;;;;;11.82;6.72;;;17.50;99.90;;;;;;5071591;28;20162;-51
2023/10/01 08:29:59;;;;;;;14.90;7.63;;;17.70;99.90;;;;;;5071832;28;20637;-51
2023/10/01 08:32:22;;;;;;;13.55;7.50;;;17.90;99.90;;;;;;5071374;28;20560;-51
2023/10/01 08:35:01;;;;;;;16.33;7.20;;;18.00;99.90;;;;;;5071747;28;20181;-51
2023/10/01 08:37:31;;;;;;;16.75;7.28;;;;;;;;;;5071661;28;20176;-49
2023/10/01 08:40:00;;;;;;;11.75;6.95;;;18.10;99.90;;;;;;5071866;28;20201;-51
2023/10/01 08:42:29;;;;;;;13.32;7.32;;;18.20;99.90;;;;;;5071326;28;20166;-49
2023/10/01 08:45:06;;;;;;;11.85;6.82;;;18.20;99.90;;;;;;5071824;28;20223;-49
2023/10/01 08:47:35;;;;;;;14.75;7.57;;;18.40;99.90;;;;;;5071438;28;20211;-51
2023/10/01 08:52:52;;;;;;;14.57;7.35;;;18.40;99.90;;;;;;5071329;28;20192;-51
2023/10/01 08:55:35;;;;;;;15.50;7.90;;;18.50;99.90;;;;;;5071266;28;20572;-51
2023/10/01 08:58:15;;;;;;;14.35;7.60;;;18.60;99.90;;;;;;5071182;28;20175;-50
2023/10/01 09:00:52;;;;;;;12.75;6.85;;;18.70;99.90;;;;;;5070854;28;20169;-51
2023/10/01 09:03:28;;;;;;;14.68;7.45;;;18.90;99.90;;;;;;5071261;28;20197;-51
2023/10/01 09:06:04;;;;;;;13.50;7.30;;;18.80;99.90;;;;;;5071330;28;20173;-51
2023/10/01 09:08:45;;;;;;;15.25;7.75;;;19.00;99.90;;;;;;5070828;28;20165;-50
2023/10/01 09:11:13;;;;;;;12.57;7.50;;;19.20;99.90;;;;;;5071059;28;20381;-52
2023/10/01 09:14:14;;;;;;;14.77;7.90;;;19.10;99.90;;;;;;5071134;28;20227;-51
2023/10/01 09:16:42;;;;;;;15.90;7.70;;;19.20;99.90;;;;;;5070787;28;20528;-51
2023/10/01 09:22:08;;;;;;;15.10;7.25;;;19.40;99.90;;;;;;5070618;28;20205;-50
2023/10/01 09:24:42;;;;;;;14.07;7.25;;;19.60;99.90;;;;;;5053106;28;20177;-51
2023/10/01 09:27:18;;;;;;;15.43;7.82;;;19.60;99.90;;;;;;5070806;28;20193;-50
2023/10/01 09:29:45;;;;;;;14.35;7.25;;;19.80;99.90;;;;;;5070724;28;20166;-51
2023/10/01 09:32:13;;;;;;;16.10;8.27;;;19.70;99.90;;;;;;5070791;28;20568;-51
2023/10/01 09:34:53;;;;;;;17.17;8.80;;;19.90;99.90;;;;;;5070365;28;20178;-51
2023/10/01 09:37:35;;;;;;;18.42;10.85;;;20.10;99.90;;;;;;5070704;28;20521;-51
2023/10/01 09:40:05;;;;;;;14.88;8.25;;;20.20;99.90;;;;;;5070820;28;20256;-50
2023/10/01 09:42:44;;;;;;;17.38;8.57;;;20.20;99.90;;;;;;5071028;28;20177;-50
2023/10/01 09:45:26;;;;;;;18.02;10.00;;;20.30;99.90;;;;;;5070628;28;20257;-51
2023/10/01 09:48:01;;;;;;;18.30;8.50;;;20.40;99.90;;;;;;5071098;28;20178;-51
2023/10/01 09:50:27;;;;;;;15.10;7.97;;;20.50;99.90;;;;;;5074660;28;20198;-50
2023/10/01 09:52:59;;;;;;;14.90;8.57;;;20.50;99.90;;;;;;5074321;28;20177;-49
2023/10/01 09:55:27;;;;;;;14.85;8.18;;;20.50;99.90;;;;;;5074976;28;20169;-49
2023/10/01 09:57:54;;;;;;;13.85;6.97;;;20.70;99.90;;;;;;5073762;28;20197;-49
2023/10/01 10:03:12;;;;;;;12.90;7.65;;;20.70;99.90;;;;;;5074135;28;20582;-50
2023/10/01 10:05:42;;;;;;;17.83;7.93;;;20.90;99.90;;;;;;5073874;28;20621;-50
2023/10/01 10:08:26;;;;;;;15.00;9.07;;;21.10;99.90;;;;;;5074016;28;20174;-50
2023/10/01 10:11:24;;;;;;;19.00;8.98;;;21.30;99.90;;;;;;5073855;28;20201;-48
2023/10/01 10:13:57;;;;;;;12.75;7.13;;;21.50;99.90;;;;;;5073768;28;20202;-50
2023/10/01 10:16:32;;;;;;;15.48;7.80;;;21.50;99.90;;;;;;5073954;28;20196;-50
2023/10/01 10:19:13;;;;;;;15.35;8.10;;;21.30;99.90;;;;;;5073642;28;20169;-50
2023/10/01 10:22:05;;;;;;;13.93;7.78;;;21.10;99.90;;;;;;5073575;28;20239;-50
2023/10/01 10:24:36;;;;;;;12.07;7.85;;;21.00;99.90;;;;;;5073487;28;20208;-50
2023/10/01 10:27:08;;;;;;;12.63;7.40;;;21.20;99.90;;;;;;5055112;28;20174;-50
2023/10/01 10:29:46;;;;;;;13.25;7.25;;;21.40;99.90;;;;;;5073533;28;20194;-51
2023/10/01 10:32:16;;;;;;;14.70;7.55;;;21.40;99.90;;;;;;5072790;28;20209;-49
2023/10/01 10:35:06;;;;;;;13.20;7.75;;;21.50;99.90;;;;;;5073064;28;20162;-48
2023/10/01 10:37:35;;;;;;;15.48;8.13;;;21.50;99.90;;;;;;5073681;28;20182;-49
2023/10/01 10:40:12;;;;;;;14.90;8.85;;;21.60;99.90;;;;;;5055223;28;20633;-50
2023/10/01 10:43:04;;;;;;;14.68;8.27;;;21.50;99.90;;;;;;5073089;28;20177;-50
2023/10/01 10:45:42;;;;;;;18.13;8.23;;;21.70;99.90;;;;;;5072862;28;20672;-49
2023/10/01 10:48:08;;;;;;;12.70;7.20;;;21.80;99.90;;;;;;5073209;28;20532;-49
2023/10/01 10:51:02;;;;;;;15.55;7.68;;;21.70;99.90;;;;;;5072980;28;20674;-49
2023/10/01 10:53:29;;;;;;;17.23;8.07;;;21.90;99.90;;;;;;5073055;28;20257;-49
2023/10/01 10:56:06;;;;;;;15.45;8.07;;;22.10;99.90;;;;;;5073441;28;20188;-49
2023/10/01 10:58:40;;;;;;;17.23;8.52;;;22.10;99.90;;;;;;5073079;28;20530;-49
2023/10/01 11:01:15;;;;;;;19.20;8.13;;;22.10;99.90;;;;;;5071775;28;20249;-49
2023/10/01 11:03:41;;;;;;;12.38;7.95;;;22.30;99.90;;;;;;5073151;28;20165;-49
2023/10/01 11:06:22;;;;;;;15.40;7.90;;;22.50;99.90;;;;;;5072619;28;20166;-49
2023/10/01 11:08:50;;;;;;;16.30;8.38;;;22.40;99.90;;;;;;5072786;28;20162;-50
2023/10/01 11:11:24;;;;;;;16.55;7.85;;;22.40;99.90;;;;;;5072243;28;20204;-50
2023/10/01 11:14:02;;;;;;;13.45;7.75;;;22.40;99.90;;;;;;5072700;28;20172;-50
2023/10/01 11:16:38;;;;;;;15.88;8.50;;;22.40;99.90;;;;;;5072851;28;20177;-50
2023/10/01 11:19:14;;;;;;;15.85;7.88;;;22.50;99.90;;;;;;5072572;28;20176;-50
2023/10/01 11:21:56;;;;;;;16.98;7.97;;;22.50;99.90;;;;;;5072462;28;20166;-49
2023/10/01 11:24:31;;;;;;;14.52;7.28;;;22.50;99.90;;;;;;5054309;28;20162;-49
2023/10/01 11:27:22;;;;;;;14.75;8.02;;;22.50;99.90;;;;;;5072250;28;20174;-48
2023/10/01 11:30:20;;;;;;;18.17;8.57;;;22.60;99.90;;;;;;5072239;28;20173;-49
2023/10/01 11:33:03;;;;;;;16.23;8.50;;;22.50;99.90;;;;;;5065552;28;20175;-49
2023/10/01 11:35:34;;;;;;;16.70;9.38;;;22.70;99.90;;;;;;5052209;28;20170;-49
2023/10/01 11:38:10;;;;;;;19.38;8.73;;;22.80;99.90;;;;;;5051872;28;20571;-50
2023/10/01 11:43:32;;;;;;;14.45;8.20;;;22.90;99.90;;;;;;5052256;28;20173;-49
2023/10/01 11:46:23;;;;;;;13.05;8.15;;;22.80;99.90;;;;;;5051962;28;20654;-50
2023/10/01 11:49:04;;;;;;;15.05;8.65;;;23.10;99.90;;;;;;5052199;28;20232;-49
2023/10/01 11:51:54;;;;;;;17.02;8.32;;;23.20;99.90;;;;;;5051943;28;20194;-50
2023/10/01 11:54:22;;;;;;;15.98;7.97;;;23.20;99.90;;;;;;5051867;28;20560;-50
2023/10/01 11:57:04;;;;;;;17.83;8.73;;;23.40;99.90;;;;;;5051267;28;20644;-50
2023/10/01 11:59:31;;;;;;;16.63;8.88;;;23.30;99.90;;;;;;5051669;28;20623;-50
2023/10/01 12:02:15;;;;;;;15.20;8.73;;;;;;;;;;5033898;28;20171;-49
2023/10/01 12:04:44;;;;;;;14.70;8.43;;;23.40;99.90;;;;;;5051376;28;20638;-51
2023/10/01 12:07:17;;;;;;;15.73;8.55;;;23.40;99.90;;;;;;5052277;28;20194;-50
2023/10/01 12:09:48;;;;;;;14.95;8.73;;;23.60;99.90;;;;;;5051760;28;20170;-50
2023/10/01 12:12:18;;;;;;;17.17;9.05;;;23.60;99.90;;;;;;5051470;28;20268;-50
2023/10/01 12:14:54;;;;;;;13.57;8.88;;;;;;;;;;5051509;28;20162;-51
2023/10/01 12:17:23;;;;;;;15.07;9.18;;;23.50;99.90;;;;;;5051721;28;20253;-50
2023/10/01 12:20:00;;;;;;;17.27;9.23;;;23.50;99.90;;;;;;5051584;28;20524;-51
2023/10/01 12:22:30;;;;;;;17.92;10.07;;;23.50;99.90;;;;;;5059242;28;20231;-49
2023/10/01 12:24:57;;;;;;;17.40;9.43;;;23.60;99.90;;;;;;5070117;28;20193;-47
2023/10/01 12:27:37;;;;;;;16.60;8.88;;;23.70;99.90;;;;;;5070002;28;20166;-49
2023/10/01 12:30:11;;;;;;;16.70;9.32;;;23.80;99.90;;;;;;5069435;28;20645;-52
2023/10/01 12:32:48;;;;;;;15.15;8.90;;;23.90;99.90;;;;;;5051684;28;20182;-52
2023/10/01 12:35:29;;;;;;;15.77;8.73;;;;;;;;;;5069927;28;20176;-53
2023/10/01 12:40:52;;;;;;;18.42;10.27;;;23.70;99.90;;;;;;5070056;28;20176;-50
2023/10/01 12:43:37;;;;;;;16.13;9.32;;;23.80;99.90;;;;;;5069165;28;20177;-53
2023/10/01 12:46:13;;;;;;;16.25;9.82;;;23.90;99.90;;;;;;5068990;28;20214;-51
2023/10/01 12:48:57;;;;;;;17.60;10.40;;;23.80;99.90;;;;;;5069675;28;20200;-51
2023/10/01 12:51:32;;;;;;;17.13;9.73;;;;;;;;;;5069898;28;20593;-53
2023/10/01 12:53:59;;;;;;;18.58;10.73;;;23.90;99.90;;;;;;5069071;28;20169;-50
2023/10/01 12:56:44;;;;;;;17.92;10.65;;;23.90;99.90;;;;;;5051843;28;20177;-50
2023/10/01 12:59:19;;;;;;;16.52;10.35;;;23.90;99.90;;;;;;5069275;28;20201;-52
2023/10/01 13:01:51;;;;;;;16.95;10.68;;;23.90;99.90;;;;;;5069319;28;20192;-53
2023/10/01 13:04:22;;;;;;;16.55;9.80;;;23.90;99.90;;;;;;5069393;28;20181;-54
2023/10/01 13:06:49;;;;;;;16.67;10.40;;;24.00;99.90;;;;;;5067656;28;20169;-52
2023/10/01 13:12:15;;;;;;;17.27;10.80;;;;;;;;;;5069191;28;20216;-51
2023/10/01 13:14:42;;;;;;;15.73;10.20;;;24.30;99.90;;;;;;5069671;28;20252;-50
2023/10/01 13:17:19;;;;;;;18.58;10.50;;;24.20;99.90;;;;;;5069425;28;20174;-49
2023/10/01 13:19:48;;;;;;;19.73;10.82;;;24.30;99.90;;;;;;5069462;28;20169;-48
2023/10/01 13:22:16;;;;;;;17.42;10.65;;;24.40;99.90;;;;;;5069339;28;20169;-50
2023/10/01 13:24:42;;;;;;;19.92;11.50;;;;;;;;;;5054677;28;20201;-48
2023/10/01 13:27:10;;;;;;;17.30;11.07;;;24.50;99.90;;;;;;5073188;28;20208;-47
2023/10/01 13:29:40;;;;;;;18.20;10.18;;;24.60;99.90;;;;;;5073386;28;20239;-51
2023/10/01 13:32:15;;;;;;;19.38;11.45;;;;;;;;;;5073134;28;20213;-48
2023/10/01 13:34:54;;;;;;;15.93;10.55;;;24.50;99.90;;;;;;5073054;28;20161;-48
2023/10/01 13:40:11;;;;;;;17.70;10.85;;;24.40;99.90;;;;;;5073151;28;20253;-50
2023/10/01 14:10:04;;;;;;;18.48;11.82;;;24.60;99.90;;;;;;5071971;28;20234;-51
2023/10/01 14:15:29;;;;;;;19.13;11.73;;;;;;;;;;5016624;28;20182;-52
2023/10/01 14:17:57;;;;;;;20.80;11.77;;;24.60;99.90;;;;;;5071829;28;20200;-51
2023/10/01 14:23:28;;;;;;;19.60;12.20;;;24.70;99.90;;;;;;5072238;28;20219;-53